עמוד ראשי
METAR-TAF:

METAR-TAF

שדות תעופה :

St. Mary's, אלסקה, ארצות הברית

קו רוחב: 62-03N, קו אורך: 163-18W, גובה: 95מטר

תצפית מזג אוויר נוכחית

הדו"ח נערך לפני 58דקות, בשעה 18:56 UTC
רוח 8קשר מכיוון צפון
טמפרטורת 16 צלסיוס
לחות 48%
לחץ 1016 hPa
ראות: 16.1קילומטר
שמיים נקיים

METAR: PASM 171856Z AUTO 35008KT 10SM CLR 16/05 A3000 RMK AO2 SLP164 T01610050

זמן: 11:54 (19:54 UTC)


TAF: חסר

תצפיות ותחזיות מזג אוויר לגבי יותר מ- 4,000 שדות תעופה ברחבי העולם. דוחות METAR ו- TAF.

התחנות הזמינות מסומנות בנקודות צהובות ואדומות על גבי המפה.

העבר את העכבר לנקודה הצבעונית על מנת לראות את שם התחנה.

לאחר מכן, לחץ כדי לראות את תוכן ואת תחזיות מזג האוויר.

כדי לשנות את המפה: לחץ על הכפתורים הירוקים עם הפלוס השחור כדי להתקרב; על הכפתור הירוק עם המקף כדי להתרחק; או בחיצים הירוקים למפות סמוכות.


METAR-TAF: